createdAt,value
2023-05-17T00:02:06.218Z,21.45
2023-05-17T00:04:34.925Z,20.48
2023-05-17T00:07:03.636Z,19.58
2023-05-17T00:09:31.969Z,17.70
2023-05-17T00:12:00.726Z,19.88
2023-05-17T00:14:29.037Z,19.80
2023-05-17T00:16:57.715Z,17.77
2023-05-17T00:19:26.328Z,20.70
2023-05-17T00:21:54.962Z,21.25
2023-05-17T00:24:23.283Z,20.08
2023-05-17T00:26:51.835Z,23.23
2023-05-17T00:29:20.081Z,17.27
2023-05-17T00:31:48.617Z,16.50
2023-05-17T00:34:16.910Z,16.65
2023-05-17T00:36:46.133Z,15.75
2023-05-17T00:39:14.548Z,17.38
2023-05-17T00:41:43.635Z,18.40
2023-05-17T00:44:12.196Z,16.85
2023-05-17T00:46:40.853Z,18.30
2023-05-17T00:49:09.218Z,15.45
2023-05-17T00:51:39.800Z,17.02
2023-05-17T00:54:08.314Z,18.70
2023-05-17T00:56:37.001Z,19.02
2023-05-17T00:59:07.060Z,15.85
2023-05-17T01:01:41.412Z,17.85
2023-05-17T01:04:11.153Z,20.05
2023-05-17T01:06:40.265Z,15.68
2023-05-17T01:09:09.665Z,16.58
2023-05-17T01:12:13.495Z,12.57
2023-05-17T01:15:11.664Z,15.95
2023-05-17T01:17:42.304Z,15.57
2023-05-17T01:20:26.314Z,17.50
2023-05-17T01:23:11.262Z,15.07
2023-05-17T01:26:02.397Z,13.43
2023-05-17T01:28:33.116Z,14.20
2023-05-17T01:31:03.351Z,15.13
2023-05-17T01:33:32.870Z,13.98
2023-05-17T01:36:02.498Z,13.38
2023-05-17T01:38:31.335Z,14.05
2023-05-17T01:41:07.105Z,13.45
2023-05-17T01:43:39.992Z,16.27
2023-05-17T01:46:08.187Z,13.30
2023-05-17T01:48:41.645Z,13.35
2023-05-17T01:51:17.208Z,16.23
2023-05-17T01:53:57.646Z,13.32
2023-05-17T01:56:34.702Z,13.27
2023-05-17T01:59:06.944Z,12.68
2023-05-17T02:01:36.685Z,13.80
2023-05-17T02:04:05.398Z,15.10
2023-05-17T02:09:05.823Z,14.00
2023-05-17T02:11:34.266Z,14.43
2023-05-17T02:14:02.971Z,11.38
2023-05-17T02:16:31.356Z,14.68
2023-05-17T02:19:00.062Z,13.13
2023-05-17T02:21:28.396Z,12.27
2023-05-17T02:23:57.685Z,14.27
2023-05-17T02:26:26.288Z,12.35
2023-05-17T02:28:54.854Z,14.32
2023-05-17T02:31:25.066Z,13.93
2023-05-17T02:33:54.886Z,11.23
2023-05-17T02:36:24.632Z,12.52
2023-05-17T02:38:53.209Z,14.30
2023-05-17T02:41:21.614Z,11.70
2023-05-17T02:43:50.750Z,12.93
2023-05-17T02:46:19.034Z,11.80
2023-05-17T02:48:47.752Z,13.07
2023-05-17T02:51:15.988Z,12.35
2023-05-17T02:53:44.746Z,12.48
2023-05-17T02:56:13.641Z,12.07
2023-05-17T02:58:42.339Z,10.50
2023-05-17T03:01:10.862Z,12.70
2023-05-17T03:03:39.832Z,11.98
2023-05-17T03:06:08.880Z,13.35
2023-05-17T03:08:37.490Z,13.90
2023-05-17T03:11:06.287Z,8.90
2023-05-17T03:13:34.968Z,9.13
2023-05-17T03:16:03.569Z,9.45
2023-05-17T03:18:32.588Z,8.88
2023-05-17T03:21:01.496Z,9.32
2023-05-17T03:23:30.063Z,5.95
2023-05-17T03:26:01.264Z,6.83
2023-05-17T03:28:33.863Z,10.82
2023-05-17T03:31:02.668Z,9.60
2023-05-17T03:33:34.356Z,8.23
2023-05-17T03:36:03.816Z,10.85
2023-05-17T03:38:32.435Z,9.38
2023-05-17T03:41:00.797Z,16.33
2023-05-17T03:43:29.569Z,8.57
2023-05-17T03:46:00.306Z,9.25
2023-05-17T03:48:30.333Z,7.57
2023-05-17T03:50:59.232Z,7.63
2023-05-17T03:53:29.040Z,8.25
2023-05-17T03:55:57.801Z,7.25
2023-05-17T03:58:26.699Z,6.18
2023-05-17T04:00:57.427Z,8.80
2023-05-17T04:03:26.246Z,7.20
2023-05-17T04:06:01.932Z,8.60
2023-05-17T04:08:30.522Z,7.30
2023-05-17T04:10:58.843Z,10.00
2023-05-17T04:13:27.475Z,8.80
2023-05-17T04:15:56.513Z,9.88
2023-05-17T04:18:25.442Z,6.03
2023-05-17T04:20:55.749Z,7.65
2023-05-17T04:23:25.519Z,7.75
2023-05-17T04:25:54.060Z,6.07
2023-05-17T04:28:24.843Z,7.50
2023-05-17T04:30:54.365Z,11.68
2023-05-17T04:33:24.714Z,7.05
2023-05-17T04:35:56.935Z,10.45
2023-05-17T04:38:29.248Z,7.22
2023-05-17T04:41:07.418Z,10.45
2023-05-17T04:43:38.616Z,9.70
2023-05-17T04:46:11.775Z,8.43
2023-05-17T04:48:40.654Z,7.72
2023-05-17T04:51:10.917Z,6.50
2023-05-17T04:54:01.095Z,8.82
2023-05-17T04:56:33.830Z,9.05
2023-05-17T04:59:03.319Z,12.18
2023-05-17T05:01:32.775Z,7.43
2023-05-17T05:04:06.975Z,9.80
2023-05-17T05:06:40.945Z,8.07
2023-05-17T05:09:10.083Z,6.03
2023-05-17T05:11:40.348Z,7.28
2023-05-17T05:14:09.081Z,7.97
2023-05-17T05:16:37.589Z,6.13
2023-05-17T05:19:06.799Z,9.88
2023-05-17T05:21:35.553Z,12.77
2023-05-17T05:24:05.034Z,10.45
2023-05-17T05:26:33.482Z,13.05
2023-05-17T05:29:04.740Z,8.20
2023-05-17T05:31:34.637Z,10.20
2023-05-17T05:34:04.992Z,11.73
2023-05-17T05:36:34.570Z,8.40
2023-05-17T05:39:03.627Z,9.80
2023-05-17T05:41:33.510Z,9.23
2023-05-17T05:44:02.292Z,10.02
2023-05-17T05:46:30.835Z,9.13
2023-05-17T05:49:00.424Z,8.07
2023-05-17T05:51:29.721Z,11.32
2023-05-17T05:54:00.103Z,7.38
2023-05-17T05:56:29.225Z,11.32
2023-05-17T05:58:58.783Z,8.43
2023-05-17T06:01:28.998Z,13.35
2023-05-17T06:03:57.633Z,10.85
2023-05-17T06:06:26.137Z,8.90
2023-05-17T06:08:55.182Z,10.40
2023-05-17T06:11:26.165Z,14.80
2023-05-17T06:13:54.795Z,9.93
2023-05-17T06:16:23.093Z,14.73
2023-05-17T06:18:51.849Z,9.77
2023-05-17T06:21:20.202Z,10.88
2023-05-17T06:23:49.303Z,8.10
2023-05-17T06:26:17.605Z,11.95
2023-05-17T06:28:46.285Z,9.02
2023-05-17T06:31:14.649Z,7.43
2023-05-17T06:33:43.444Z,9.15
2023-05-17T06:36:11.810Z,10.77
2023-05-17T06:38:40.434Z,10.40
2023-05-17T06:41:09.205Z,12.57
2023-05-17T06:43:38.009Z,11.15
2023-05-17T06:46:06.364Z,12.43
2023-05-17T06:48:34.992Z,13.85
2023-05-17T06:51:03.598Z,12.20
2023-05-17T06:53:32.279Z,10.52
2023-05-17T06:56:00.687Z,10.07
2023-05-17T06:58:29.366Z,8.77
2023-05-17T07:00:57.767Z,11.65
2023-05-17T07:03:26.795Z,7.10
2023-05-17T07:05:55.176Z,11.23
2023-05-17T07:08:23.837Z,9.98
2023-05-17T07:10:52.771Z,15.00
2023-05-17T07:13:21.631Z,14.05
2023-05-17T07:15:50.038Z,13.38
2023-05-17T07:18:18.862Z,11.02
2023-05-17T07:20:47.381Z,8.30
2023-05-17T07:23:16.562Z,12.07
2023-05-17T07:25:45.052Z,13.70
2023-05-17T07:28:13.729Z,11.82
2023-05-17T07:30:42.549Z,10.20
2023-05-17T07:33:11.629Z,8.43
2023-05-17T07:35:39.944Z,11.07
2023-05-17T07:38:10.601Z,7.88
2023-05-17T07:40:38.939Z,9.38
2023-05-17T07:43:07.805Z,9.65
2023-05-17T07:45:36.159Z,11.75
2023-05-17T07:48:06.741Z,7.38
2023-05-17T07:50:35.119Z,7.88
2023-05-17T07:53:03.879Z,12.25
2023-05-17T07:55:32.153Z,10.80
2023-05-17T07:58:00.872Z,8.80
2023-05-17T08:00:29.478Z,11.48
2023-05-17T08:02:58.290Z,7.78
2023-05-17T08:05:27.595Z,9.38
2023-05-17T08:08:00.382Z,7.38
2023-05-17T08:10:29.060Z,8.65
2023-05-17T08:12:57.691Z,9.90
2023-05-17T08:15:26.595Z,11.73
2023-05-17T08:17:55.510Z,7.90
2023-05-17T08:20:24.108Z,8.95
2023-05-17T08:22:52.712Z,14.00
2023-05-17T08:25:21.414Z,8.57
2023-05-17T08:27:49.965Z,9.63
2023-05-17T08:30:28.531Z,8.93
2023-05-17T08:32:58.057Z,9.75
2023-05-17T08:35:28.991Z,6.93
2023-05-17T08:37:57.956Z,9.80
2023-05-17T08:40:27.828Z,10.48
2023-05-17T08:42:57.141Z,10.75
2023-05-17T08:45:28.319Z,8.55
2023-05-17T08:47:57.510Z,10.15
2023-05-17T08:50:27.710Z,3.97
2023-05-17T08:52:58.497Z,4.80
2023-05-17T08:55:30.173Z,13.77
2023-05-17T08:57:59.838Z,9.60
2023-05-17T09:00:28.850Z,9.57
2023-05-17T09:02:58.008Z,9.10
2023-05-17T09:05:27.127Z,10.85
2023-05-17T09:07:57.202Z,8.07
2023-05-17T09:10:25.615Z,8.57
2023-05-17T09:12:54.599Z,8.88
2023-05-17T09:15:24.288Z,8.70
2023-05-17T09:17:54.291Z,7.78
2023-05-17T09:20:35.101Z,9.00
2023-05-17T09:23:05.264Z,7.88
2023-05-17T09:25:33.927Z,9.65
2023-05-17T09:28:11.527Z,8.25
2023-05-17T09:30:42.029Z,9.07
2023-05-17T09:33:13.255Z,10.23
2023-05-17T09:35:44.126Z,7.72
2023-05-17T09:38:14.126Z,9.23
2023-05-17T09:40:44.338Z,8.02
2023-05-17T09:43:14.003Z,8.57
2023-05-17T09:45:42.370Z,9.70
2023-05-17T09:48:17.564Z,10.43
2023-05-17T09:50:49.048Z,9.65
2023-05-17T09:53:40.236Z,6.93
2023-05-17T09:56:10.326Z,8.25
2023-05-17T09:58:39.061Z,8.80
2023-05-17T10:01:09.233Z,7.40
2023-05-17T10:03:38.601Z,8.73
2023-05-17T10:06:13.378Z,9.48
2023-05-17T10:08:56.856Z,6.55
2023-05-17T10:11:34.008Z,9.85
2023-05-17T10:14:13.403Z,6.97
2023-05-17T10:16:43.204Z,8.98
2023-05-17T10:19:13.617Z,9.90
2023-05-17T10:21:43.516Z,5.88
2023-05-17T10:24:12.527Z,7.63
2023-05-17T10:26:42.114Z,6.80
2023-05-17T10:29:11.408Z,7.03
2023-05-17T10:31:43.578Z,6.68
2023-05-17T10:34:16.130Z,8.00
2023-05-17T10:36:45.212Z,4.97
2023-05-17T10:39:14.222Z,8.13
2023-05-17T10:41:45.496Z,8.60
2023-05-17T10:44:16.436Z,8.95
2023-05-17T10:46:54.945Z,7.00
2023-05-17T10:49:30.397Z,5.78
2023-05-17T10:52:00.150Z,9.82
2023-05-17T10:54:56.515Z,7.70
2023-05-17T10:57:50.063Z,7.28
2023-05-17T11:00:20.814Z,7.15
2023-05-17T11:02:50.807Z,7.95
2023-05-17T11:05:25.046Z,6.80
2023-05-17T11:08:12.215Z,6.50
2023-05-17T11:11:14.202Z,9.18
2023-05-17T11:13:56.014Z,6.65
2023-05-17T11:16:38.177Z,9.95
2023-05-17T11:19:12.022Z,8.48
2023-05-17T11:21:48.078Z,11.10
2023-05-17T11:24:25.516Z,5.72
2023-05-17T11:26:56.157Z,8.23
2023-05-17T11:29:30.589Z,9.43
2023-05-17T11:31:59.584Z,6.22
2023-05-17T11:34:46.293Z,7.18
2023-05-17T11:37:27.203Z,5.80
2023-05-17T11:40:08.865Z,8.75
2023-05-17T11:45:07.577Z,7.00
2023-05-17T11:47:40.342Z,5.75
2023-05-17T11:50:09.623Z,9.98
2023-05-17T11:52:41.305Z,7.97
2023-05-17T11:55:15.759Z,10.60
2023-05-17T11:57:45.132Z,8.63
2023-05-17T12:00:14.260Z,7.78
2023-05-17T12:02:42.843Z,14.45
2023-05-17T12:05:12.171Z,7.35
2023-05-17T12:07:40.858Z,8.68
2023-05-17T12:10:13.422Z,8.05
2023-05-17T12:12:43.087Z,8.23
2023-05-17T12:15:18.904Z,8.00
2023-05-17T12:17:51.472Z,6.95
2023-05-17T12:20:20.342Z,7.55
2023-05-17T12:22:56.740Z,6.97
2023-05-17T12:25:27.649Z,10.43
2023-05-17T12:28:22.940Z,9.35
2023-05-17T12:30:58.216Z,8.23
2023-05-17T12:33:28.353Z,7.85
2023-05-17T12:35:56.878Z,6.28
2023-05-17T12:38:28.145Z,6.40
2023-05-17T12:40:56.457Z,16.42
2023-05-17T12:43:25.292Z,6.40
2023-05-17T12:45:54.027Z,9.65
2023-05-17T12:48:26.841Z,8.90
2023-05-17T12:50:56.166Z,8.82
2023-05-17T12:53:26.093Z,6.30
2023-05-17T12:55:58.193Z,8.75
2023-05-17T12:58:26.765Z,9.70
2023-05-17T13:01:20.674Z,8.75
2023-05-17T13:03:52.503Z,8.13
2023-05-17T13:06:20.979Z,6.32
2023-05-17T13:08:59.822Z,10.93
2023-05-17T13:11:28.318Z,7.00
2023-05-17T13:13:56.981Z,7.80
2023-05-17T13:16:29.680Z,7.20
2023-05-17T13:18:58.601Z,7.60
2023-05-17T13:21:26.919Z,8.82
2023-05-17T13:23:55.852Z,6.28
2023-05-17T13:26:24.099Z,4.70
2023-05-17T13:28:52.780Z,8.20
2023-05-17T13:31:21.075Z,4.95
2023-05-17T13:33:50.380Z,10.45
2023-05-17T13:36:21.221Z,7.30
2023-05-17T13:38:50.886Z,6.20
2023-05-17T13:41:19.582Z,5.30
2023-05-17T13:43:48.309Z,3.58
2023-05-17T13:46:16.798Z,8.10
2023-05-17T13:48:45.559Z,5.95
2023-05-17T13:51:14.022Z,7.65
2023-05-17T13:53:44.345Z,6.85
2023-05-17T13:56:12.766Z,8.10
2023-05-17T13:58:42.985Z,7.13
2023-05-17T14:01:11.648Z,6.35
2023-05-17T14:03:40.642Z,7.85
2023-05-17T14:06:08.998Z,9.18
2023-05-17T14:08:37.773Z,8.73
2023-05-17T14:11:06.584Z,4.10
2023-05-17T14:13:35.177Z,4.18
2023-05-17T14:16:03.460Z,5.63
2023-05-17T14:18:32.781Z,6.22
2023-05-17T14:21:01.497Z,9.98
2023-05-17T14:23:30.496Z,9.23
2023-05-17T14:25:58.812Z,7.03
2023-05-17T14:28:27.732Z,8.90
2023-05-17T14:30:56.304Z,6.03
2023-05-17T14:33:27.034Z,9.15
2023-05-17T14:35:55.479Z,7.32
2023-05-17T14:38:24.364Z,5.22
2023-05-17T14:40:52.720Z,8.65
2023-05-17T14:43:23.237Z,6.90
2023-05-17T14:45:51.689Z,9.32
2023-05-17T14:48:20.662Z,9.60
2023-05-17T14:50:49.022Z,9.48
2023-05-17T14:53:17.750Z,8.23
2023-05-17T14:55:46.070Z,6.43
2023-05-17T14:58:14.883Z,7.15
2023-05-17T15:00:48.569Z,9.32
2023-05-17T15:03:21.929Z,11.32
2023-05-17T15:05:57.192Z,10.10
2023-05-17T15:08:27.703Z,10.85
2023-05-17T15:10:57.817Z,8.52
2023-05-17T15:13:26.818Z,6.28
2023-05-17T15:15:55.265Z,8.70
2023-05-17T15:18:24.079Z,5.28
2023-05-17T15:20:53.136Z,9.90
2023-05-17T15:23:21.689Z,9.90
2023-05-17T15:25:50.674Z,8.20
2023-05-17T15:28:20.946Z,8.15
2023-05-17T15:30:49.516Z,11.27
2023-05-17T15:33:17.976Z,6.25
2023-05-17T15:35:51.203Z,6.45
2023-05-17T15:38:19.963Z,10.07
2023-05-17T15:40:53.441Z,8.65
2023-05-17T15:43:21.918Z,8.90
2023-05-17T15:45:50.487Z,10.82
2023-05-17T15:48:18.819Z,7.30
2023-05-17T15:50:47.577Z,11.38
2023-05-17T15:53:15.994Z,11.98
2023-05-17T15:55:44.724Z,17.48
2023-05-17T15:58:13.353Z,8.57
2023-05-17T16:00:41.915Z,8.80
2023-05-17T16:03:10.225Z,6.80
2023-05-17T16:05:39.848Z,10.27
2023-05-17T16:08:09.434Z,9.75
2023-05-17T16:10:38.854Z,9.65
2023-05-17T16:13:07.307Z,7.07
2023-05-17T16:15:35.960Z,7.78
2023-05-17T16:18:04.434Z,7.68
2023-05-17T16:20:33.949Z,10.23
2023-05-17T16:23:02.267Z,6.57
2023-05-17T16:25:31.098Z,5.70
2023-05-17T16:27:59.591Z,5.25
2023-05-17T16:30:28.663Z,8.40
2023-05-17T16:32:57.105Z,9.40
2023-05-17T16:35:26.136Z,7.30
2023-05-17T16:37:54.419Z,7.72
2023-05-17T16:40:23.180Z,10.75
2023-05-17T16:42:51.422Z,9.90
2023-05-17T16:45:20.165Z,7.18
2023-05-17T16:47:48.531Z,4.80
2023-05-17T16:50:17.290Z,10.90
2023-05-17T16:52:45.648Z,7.25
2023-05-17T16:55:14.272Z,4.50
2023-05-17T16:57:42.578Z,6.15
2023-05-17T17:00:12.203Z,10.25
2023-05-17T17:02:40.558Z,10.45
2023-05-17T17:05:10.525Z,9.23
2023-05-17T17:07:39.065Z,5.57
2023-05-17T17:10:08.141Z,6.32
2023-05-17T17:12:36.420Z,8.90
2023-05-17T17:15:07.837Z,6.15
2023-05-17T17:17:36.484Z,6.13
2023-05-17T17:20:09.131Z,6.63
2023-05-17T17:22:37.874Z,6.20
2023-05-17T17:25:07.637Z,8.15
2023-05-17T17:27:36.250Z,12.48
2023-05-17T17:30:15.346Z,5.90
2023-05-17T17:32:43.815Z,8.68
2023-05-17T17:35:13.003Z,8.98
2023-05-17T17:37:50.190Z,8.32
2023-05-17T17:40:19.268Z,7.25
2023-05-17T17:42:47.933Z,6.93
2023-05-17T17:45:16.585Z,8.50
2023-05-17T17:47:45.225Z,5.90
2023-05-17T17:50:17.291Z,9.75
2023-05-17T17:52:45.542Z,6.80
2023-05-17T17:55:15.378Z,8.35
2023-05-17T17:57:43.739Z,8.48
2023-05-17T18:00:13.322Z,8.25
2023-05-17T18:02:42.333Z,8.80
2023-05-17T18:05:12.041Z,6.97
2023-05-17T18:07:41.463Z,9.63
2023-05-17T18:10:10.853Z,7.40
2023-05-17T18:12:39.224Z,8.38
2023-05-17T18:15:08.240Z,6.55
2023-05-17T18:17:40.443Z,8.32
2023-05-17T18:20:09.283Z,6.82
2023-05-17T18:22:37.562Z,8.65
2023-05-17T18:25:06.603Z,8.75
2023-05-17T18:27:35.555Z,5.68
2023-05-17T18:30:05.109Z,5.53
2023-05-17T18:32:34.053Z,5.43
2023-05-17T18:35:03.553Z,4.30
2023-05-17T18:37:33.071Z,5.32
2023-05-17T18:40:02.485Z,9.13
2023-05-17T18:42:31.253Z,9.45
2023-05-17T18:45:01.726Z,6.80
2023-05-17T18:47:31.446Z,6.95
2023-05-17T18:50:00.260Z,9.82
2023-05-17T18:52:28.771Z,9.25
2023-05-17T18:54:57.442Z,10.52
2023-05-17T18:57:26.000Z,7.53
2023-05-17T18:59:54.623Z,7.88
2023-05-17T19:02:23.060Z,8.50
2023-05-17T19:04:52.236Z,8.23
2023-05-17T19:07:22.581Z,8.88
2023-05-17T19:09:51.220Z,7.75
2023-05-17T19:12:19.589Z,5.00
2023-05-17T19:14:48.210Z,6.75
2023-05-17T19:17:17.077Z,7.03
2023-05-17T19:19:45.874Z,5.50
2023-05-17T19:22:14.690Z,7.10
2023-05-17T19:24:43.355Z,8.57
2023-05-17T19:27:12.127Z,13.35
2023-05-17T19:29:40.636Z,7.88
2023-05-17T19:32:08.925Z,8.27
2023-05-17T19:34:37.643Z,4.68
2023-05-17T19:37:06.365Z,5.22
2023-05-17T19:39:35.272Z,6.22
2023-05-17T19:42:03.822Z,5.50
2023-05-17T19:44:32.750Z,8.13
2023-05-17T19:47:01.870Z,6.72
2023-05-17T19:49:30.691Z,5.45
2023-05-17T19:52:01.308Z,4.72
2023-05-17T19:54:30.486Z,21.08
2023-05-17T19:56:59.817Z,10.40
2023-05-17T19:59:28.619Z,5.82
2023-05-17T20:01:57.704Z,8.25
2023-05-17T20:04:26.565Z,16.23
2023-05-17T20:06:55.230Z,10.43
2023-05-17T20:09:26.955Z,10.65
2023-05-17T20:11:56.548Z,9.93
2023-05-17T20:14:26.556Z,7.30
2023-05-17T20:16:55.042Z,7.45
2023-05-17T20:19:23.996Z,7.28
2023-05-17T20:21:53.232Z,11.35
2023-05-17T20:24:25.856Z,10.02
2023-05-17T20:26:59.731Z,18.45
2023-05-17T20:30:18.010Z,13.20
2023-05-17T20:32:47.897Z,18.40
2023-05-17T20:38:01.603Z,11.25
2023-05-17T20:40:30.993Z,14.63
2023-05-17T20:43:01.909Z,8.13
2023-05-17T20:45:30.928Z,7.45
2023-05-17T20:47:59.761Z,11.35
2023-05-17T20:50:30.118Z,15.88
2023-05-17T20:52:59.750Z,14.63
2023-05-17T20:55:39.820Z,9.90
2023-05-17T20:58:09.103Z,17.92
2023-05-17T21:00:43.390Z,9.23
2023-05-17T21:03:33.449Z,6.97
2023-05-17T21:06:05.058Z,8.73
2023-05-17T21:09:02.898Z,10.13
2023-05-17T21:11:34.617Z,8.30
2023-05-17T21:14:03.420Z,9.32
2023-05-17T21:16:32.450Z,11.45
2023-05-17T21:19:01.148Z,8.82
2023-05-17T21:21:32.464Z,16.50
2023-05-17T21:24:00.892Z,8.20
2023-05-17T21:26:29.994Z,8.48
2023-05-17T21:28:58.411Z,7.10
2023-05-17T21:31:28.438Z,9.35
2023-05-17T21:33:56.856Z,6.43
2023-05-17T21:36:25.682Z,8.23
2023-05-17T21:38:56.309Z,7.80
2023-05-17T21:41:24.924Z,8.85
2023-05-17T21:43:53.237Z,8.07
2023-05-17T21:46:21.976Z,6.70
2023-05-17T21:49:16.270Z,7.28
2023-05-17T21:51:47.981Z,6.85
2023-05-17T21:55:09.160Z,8.90
2023-05-17T21:57:37.896Z,15.45
2023-05-17T22:00:32.038Z,12.95
2023-05-17T22:03:01.204Z,9.48
2023-05-17T22:05:30.767Z,8.68
2023-05-17T22:08:07.150Z,10.15
2023-05-17T22:10:35.466Z,7.82
2023-05-17T22:13:06.261Z,12.45
2023-05-17T22:15:35.455Z,10.45
2023-05-17T22:18:05.477Z,12.95
2023-05-17T22:20:33.897Z,10.20
2023-05-17T22:23:05.483Z,9.57
2023-05-17T22:25:34.023Z,9.00
2023-05-17T22:28:03.287Z,10.75
2023-05-17T22:30:31.886Z,8.10
2023-05-17T22:33:04.488Z,9.10
2023-05-17T22:35:35.391Z,11.30
2023-05-17T22:38:04.825Z,10.98
2023-05-17T22:40:33.509Z,7.30
2023-05-17T22:43:02.443Z,7.55
2023-05-17T22:45:33.546Z,9.55
2023-05-17T22:48:03.864Z,10.45
2023-05-17T22:50:32.899Z,12.35
2023-05-17T22:53:02.010Z,13.23
2023-05-17T22:55:30.509Z,9.18
2023-05-17T22:57:59.438Z,10.65
2023-05-17T23:00:27.770Z,12.10
2023-05-17T23:02:56.485Z,14.48
2023-05-17T23:05:25.037Z,9.35
2023-05-17T23:07:53.656Z,10.35
2023-05-17T23:10:22.008Z,7.03
2023-05-17T23:12:52.428Z,9.82
2023-05-17T23:15:22.031Z,7.32
2023-05-17T23:17:51.138Z,8.98
2023-05-17T23:20:20.182Z,9.60
2023-05-17T23:22:49.678Z,8.40
2023-05-17T23:25:18.053Z,7.43
2023-05-17T23:27:48.814Z,9.90
2023-05-17T23:30:17.337Z,8.40
2023-05-17T23:32:51.536Z,10.70
2023-05-17T23:35:19.846Z,12.80
2023-05-17T23:37:48.562Z,14.32
2023-05-17T23:40:16.845Z,11.32
2023-05-17T23:42:46.368Z,14.63
2023-05-17T23:45:14.840Z,8.65
2023-05-17T23:47:44.628Z,11.05
2023-05-17T23:50:13.109Z,10.63
2023-05-17T23:52:43.590Z,10.52
2023-05-17T23:55:13.117Z,11.05
2023-05-17T23:57:43.841Z,7.32
